sensor_id;sensor_type;location;lat;lon;timestamp;pressure;altitude;pressure_sealevel;temperature;humidity
57616;BME280;43816;52.054;-9.494;2023-05-02T00:00:09;101745.66;;;26.78;32.21
57616;BME280;43816;52.054;-9.494;2023-05-02T00:00:20;101758.19;;;26.81;32.59
57616;BME280;43816;52.054;-9.494;2023-05-02T00:00:30;101765.22;;;26.83;32.32
57616;BME280;43816;52.054;-9.494;2023-05-02T00:00:41;101756.69;;;26.78;32.53
57616;BME280;43816;52.054;-9.494;2023-05-02T00:00:51;101747.09;;;26.74;32.54
57616;BME280;43816;52.054;-9.494;2023-05-02T00:01:01;101748.81;;;26.75;32.51
57616;BME280;43816;52.054;-9.494;2023-05-02T00:01:12;101756.50;;;26.80;32.63
57616;BME280;43816;52.054;-9.494;2023-05-02T00:01:22;101754.56;;;26.80;32.65
57616;BME280;43816;52.054;-9.494;2023-05-02T00:01:33;101764.53;;;26.81;32.46
57616;BME280;43816;52.054;-9.494;2023-05-02T00:01:43;101767.97;;;26.83;32.32
57616;BME280;43816;52.054;-9.494;2023-05-02T00:01:54;101761.13;;;26.79;32.39
57616;BME280;43816;52.054;-9.494;2023-05-02T00:02:04;101764.09;;;26.77;32.53
57616;BME280;43816;52.054;-9.494;2023-05-02T00:02:14;101753.25;;;26.76;32.39
57616;BME280;43816;52.054;-9.494;2023-05-02T00:02:25;101769.22;;;26.81;32.78
57616;BME280;43816;52.054;-9.494;2023-05-02T00:02:35;101755.16;;;26.75;32.61
57616;BME280;43816;52.054;-9.494;2023-05-02T00:02:46;101762.00;;;26.80;32.63
57616;BME280;43816;52.054;-9.494;2023-05-02T00:02:56;101761.34;;;26.77;32.52
57616;BME280;43816;52.054;-9.494;2023-05-02T00:03:07;101757.94;;;26.75;32.15
57616;BME280;43816;52.054;-9.494;2023-05-02T00:03:17;101759.44;;;26.78;32.46
57616;BME280;43816;52.054;-9.494;2023-05-02T00:03:28;101763.06;;;26.79;32.65
57616;BME280;43816;52.054;-9.494;2023-05-02T00:03:38;101762.84;;;26.80;32.37
57616;BME280;43816;52.054;-9.494;2023-05-02T00:03:48;101753.44;;;26.74;32.53
57616;BME280;43816;52.054;-9.494;2023-05-02T00:03:59;101766.66;;;26.79;32.72
57616;BME280;43816;52.054;-9.494;2023-05-02T00:04:09;101742.38;;;26.68;32.30
57616;BME280;43816;52.054;-9.494;2023-05-02T00:04:19;101764.97;;;26.78;32.47
57616;BME280;43816;52.054;-9.494;2023-05-02T00:04:30;101766.66;;;26.79;32.28
57616;BME280;43816;52.054;-9.494;2023-05-02T00:04:40;101760.69;;;26.75;32.55
57616;BME280;43816;52.054;-9.494;2023-05-02T00:04:51;101762.59;;;26.75;32.33
57616;BME280;43816;52.054;-9.494;2023-05-02T00:05:01;101757.09;;;26.75;32.39
57616;BME280;43816;52.054;-9.494;2023-05-02T00:05:11;101761.72;;;26.74;32.60
57616;BME280;43816;52.054;-9.494;2023-05-02T00:05:22;101750.44;;;26.69;32.32
57616;BME280;43816;52.054;-9.494;2023-05-02T00:05:33;101758.13;;;26.74;32.15
57616;BME280;43816;52.054;-9.494;2023-05-02T00:05:43;101762.59;;;26.75;32.36
57616;BME280;43816;52.054;-9.494;2023-05-02T00:05:54;101767.94;;;26.76;32.26
57616;BME280;43816;52.054;-9.494;2023-05-02T00:06:04;101751.31;;;26.70;32.05
57616;BME280;43816;52.054;-9.494;2023-05-02T00:06:14;101751.53;;;26.68;32.17
57616;BME280;43816;52.054;-9.494;2023-05-02T00:06:25;101770.00;;;26.74;32.18
57616;BME280;43816;52.054;-9.494;2023-05-02T00:06:35;101768.34;;;26.73;32.38
57616;BME280;43816;52.054;-9.494;2023-05-02T00:06:45;101765.38;;;26.75;32.18
57616;BME280;43816;52.054;-9.494;2023-05-02T00:06:56;101769.81;;;26.76;32.44
57616;BME280;43816;52.054;-9.494;2023-05-02T00:07:06;101760.91;;;26.74;32.57
57616;BME280;43816;52.054;-9.494;2023-05-02T00:07:16;101752.56;;;26.67;32.37
57616;BME280;43816;52.054;-9.494;2023-05-02T00:07:27;101754.47;;;26.67;32.43
57616;BME280;43816;52.054;-9.494;2023-05-02T00:07:37;101765.78;;;26.72;32.43
57616;BME280;43816;52.054;-9.494;2023-05-02T00:07:47;101756.38;;;26.66;32.69
57616;BME280;43816;52.054;-9.494;2023-05-02T00:07:58;101764.06;;;26.71;32.32
57616;BME280;43816;52.054;-9.494;2023-05-02T00:08:08;101765.13;;;26.70;32.56
57616;BME280;43816;52.054;-9.494;2023-05-02T00:08:18;101762.75;;;26.67;32.59
57616;BME280;43816;52.054;-9.494;2023-05-02T00:08:29;101777.44;;;26.74;32.30
57616;BME280;43816;52.054;-9.494;2023-05-02T00:08:39;101771.28;;;26.72;32.19
57616;BME280;43816;52.054;-9.494;2023-05-02T00:08:49;101761.69;;;26.68;32.37
57616;BME280;43816;52.054;-9.494;2023-05-02T00:09:00;101761.69;;;26.68;32.37
57616;BME280;43816;52.054;-9.494;2023-05-02T00:09:10;101757.25;;;26.67;32.40
57616;BME280;43816;52.054;-9.494;2023-05-02T00:09:20;101765.31;;;26.68;32.24
57616;BME280;43816;52.054;-9.494;2023-05-02T00:09:31;101765.13;;;26.70;32.46
57616;BME280;43816;52.054;-9.494;2023-05-02T00:09:41;101762.97;;;26.65;32.67
57616;BME280;43816;52.054;-9.494;2023-05-02T00:09:51;101753.84;;;26.65;32.26
57616;BME280;43816;52.054;-9.494;2023-05-02T00:10:02;101754.41;;;26.60;32.62
57616;BME280;43816;52.054;-9.494;2023-05-02T00:10:12;101769.97;;;26.68;32.20
57616;BME280;43816;52.054;-9.494;2023-05-02T00:10:22;101761.03;;;26.66;32.23
57616;BME280;43816;52.054;-9.494;2023-05-02T00:10:33;101761.03;;;26.66;32.24
57616;BME280;43816;52.054;-9.494;2023-05-02T00:10:43;101764.00;;;26.64;32.33
57616;BME280;43816;52.054;-9.494;2023-05-02T00:10:54;101765.31;;;26.68;32.57
57616;BME280;43816;52.054;-9.494;2023-05-02T00:11:04;101766.56;;;26.66;32.49
57616;BME280;43816;52.054;-9.494;2023-05-02T00:11:14;101757.81;;;26.62;32.61
57616;BME280;43816;52.054;-9.494;2023-05-02T00:11:25;101754.03;;;26.63;32.36
57616;BME280;43816;52.054;-9.494;2023-05-02T00:11:35;101767.22;;;26.68;32.52
57616;BME280;43816;52.054;-9.494;2023-05-02T00:11:45;101768.28;;;26.67;32.18
57616;BME280;43816;52.054;-9.494;2023-05-02T00:11:56;101751.63;;;26.60;32.32
57616;BME280;43816;52.054;-9.494;2023-05-02T00:12:06;101764.00;;;26.64;32.45
57616;BME280;43816;52.054;-9.494;2023-05-02T00:12:16;101759.34;;;26.65;32.09
57616;BME280;43816;52.054;-9.494;2023-05-02T00:12:27;101761.88;;;26.66;32.16
57616;BME280;43816;52.054;-9.494;2023-05-02T00:12:37;101751.44;;;26.62;32.13
57616;BME280;43816;52.054;-9.494;2023-05-02T00:12:48;101759.34;;;26.65;32.31
57616;BME280;43816;52.054;-9.494;2023-05-02T00:12:58;101765.72;;;26.65;32.28
57616;BME280;43816;52.054;-9.494;2023-05-02T00:13:08;101770.16;;;26.66;32.37
57616;BME280;43816;52.054;-9.494;2023-05-02T00:13:19;101759.34;;;26.65;32.23
57616;BME280;43816;52.054;-9.494;2023-05-02T00:13:29;101760.56;;;26.62;32.37
57616;BME280;43816;52.054;-9.494;2023-05-02T00:13:39;101764.00;;;26.64;32.26
57616;BME280;43816;52.054;-9.494;2023-05-02T00:13:49;101762.31;;;26.63;32.50
57616;BME280;43816;52.054;-9.494;2023-05-02T00:14:00;101766.56;;;26.66;32.19
57616;BME280;43816;52.054;-9.494;2023-05-02T00:14:10;101739.91;;;26.51;32.42
57616;BME280;43816;52.054;-9.494;2023-05-02T00:14:20;101763.53;;;26.61;32.53
57616;BME280;43816;52.054;-9.494;2023-05-02T00:14:31;101766.94;;;26.63;32.39
57616;BME280;43816;52.054;-9.494;2023-05-02T00:14:41;101765.06;;;26.63;32.36
57616;BME280;43816;52.054;-9.494;2023-05-02T00:14:51;101768.47;;;26.65;32.48
57616;BME280;43816;52.054;-9.494;2023-05-02T00:15:01;101765.25;;;26.62;32.49
57616;BME280;43816;52.054;-9.494;2023-05-02T00:15:12;101761.59;;;26.61;32.50
57616;BME280;43816;52.054;-9.494;2023-05-02T00:15:22;101738.38;;;26.49;32.61
57616;BME280;43816;52.054;-9.494;2023-05-02T00:15:32;101731.56;;;26.45;32.54
57616;BME280;43816;52.054;-9.494;2023-05-02T00:15:43;101740.50;;;26.47;32.38
57616;BME280;43816;52.054;-9.494;2023-05-02T00:15:53;101753.53;;;26.59;32.31
57616;BME280;43816;52.054;-9.494;2023-05-02T00:16:03;101765.25;;;26.62;32.57
57616;BME280;43816;52.054;-9.494;2023-05-02T00:16:14;101759.03;;;26.59;32.25
57616;BME280;43816;52.054;-9.494;2023-05-02T00:16:24;101759.72;;;26.62;32.21
57616;BME280;43816;52.054;-9.494;2023-05-02T00:16:35;101754.78;;;26.57;32.33
57616;BME280;43816;52.054;-9.494;2023-05-02T00:16:45;101745.41;;;26.51;32.51
57616;BME280;43816;52.054;-9.494;2023-05-02T00:16:55;101766.94;;;26.63;32.38
57616;BME280;43816;52.054;-9.494;2023-05-02T00:17:06;101757.16;;;26.60;32.29
57616;BME280;43816;52.054;-9.494;2023-05-02T00:17:19;101756.72;;;26.56;32.53
57616;BME280;43816;52.054;-9.494;2023-05-02T00:17:30;101749.88;;;26.52;32.32
57616;BME280;43816;52.054;-9.494;2023-05-02T00:17:40;101752.22;;;26.55;32.15
57616;BME280;43816;52.054;-9.494;2023-05-02T00:17:51;101758.41;;;26.57;32.34
57616;BME280;43816;52.054;-9.494;2023-05-02T00:18:01;101760.13;;;26.58;32.19
57616;BME280;43816;52.054;-9.494;2023-05-02T00:18:12;101750.50;;;26.54;32.43
57616;BME280;43816;52.054;-9.494;2023-05-02T00:18:22;101759.03;;;26.59;32.36
57616;BME280;43816;52.054;-9.494;2023-05-02T00:18:32;101754.16;;;26.55;32.63
57616;BME280;43816;52.054;-9.494;2023-05-02T00:18:43;101758.59;;;26.56;32.27
57616;BME280;43816;52.054;-9.494;2023-05-02T00:18:53;101765.38;;;26.53;32.48
57616;BME280;43816;52.054;-9.494;2023-05-02T00:19:03;101761.81;;;26.59;32.39
57616;BME280;43816;52.054;-9.494;2023-05-02T00:19:14;101757.75;;;26.55;32.42
57616;BME280;43816;52.054;-9.494;2023-05-02T00:19:25;101757.75;;;26.55;32.31
57616;BME280;43816;52.054;-9.494;2023-05-02T00:19:38;101754.16;;;26.55;32.42
57616;BME280;43816;52.054;-9.494;2023-05-02T00:19:48;101756.72;;;26.56;32.69
57616;BME280;43816;52.054;-9.494;2023-05-02T00:19:58;101758.78;;;26.54;32.48
57616;BME280;43816;52.054;-9.494;2023-05-02T00:20:10;101759.66;;;26.55;32.40
57616;BME280;43816;52.054;-9.494;2023-05-02T00:20:20;101759.47;;;26.56;32.58
57616;BME280;43816;52.054;-9.494;2023-05-02T00:20:30;101751.59;;;26.53;32.42
57616;BME280;43816;52.054;-9.494;2023-05-02T00:20:41;101758.59;;;26.56;32.72
57616;BME280;43816;52.054;-9.494;2023-05-02T00:20:51;101760.50;;;26.55;32.88
57616;BME280;43816;52.054;-9.494;2023-05-02T00:21:01;101755.84;;;26.56;32.40
57616;BME280;43816;52.054;-9.494;2023-05-02T00:21:12;101755.38;;;26.52;32.49
57616;BME280;43816;52.054;-9.494;2023-05-02T00:21:22;101756.72;;;26.56;32.40
57616;BME280;43816;52.054;-9.494;2023-05-02T00:21:32;101759.88;;;26.53;32.43
57616;BME280;43816;52.054;-9.494;2023-05-02T00:21:46;101758.78;;;26.54;32.65
57616;BME280;43816;52.054;-9.494;2023-05-02T00:21:56;101754.16;;;26.55;32.65
57616;BME280;43816;52.054;-9.494;2023-05-02T00:22:07;101759.22;;;26.51;32.34
57616;BME280;43816;52.054;-9.494;2023-05-02T00:22:17;101758.78;;;26.54;32.36
57616;BME280;43816;52.054;-9.494;2023-05-02T00:22:27;101750.25;;;26.49;32.67
57616;BME280;43816;52.054;-9.494;2023-05-02T00:22:38;101747.31;;;26.51;32.64
57616;BME280;43816;52.054;-9.494;2023-05-02T00:22:48;101751.97;;;26.50;32.50
57616;BME280;43816;52.054;-9.494;2023-05-02T00:22:58;101740.03;;;26.43;32.58
57616;BME280;43816;52.054;-9.494;2023-05-02T00:23:09;101760.72;;;26.54;32.20
57616;BME280;43816;52.054;-9.494;2023-05-02T00:23:19;101751.78;;;26.52;32.28
57616;BME280;43816;52.054;-9.494;2023-05-02T00:23:29;101748.13;;;26.45;32.17
57616;BME280;43816;52.054;-9.494;2023-05-02T00:23:39;101764.31;;;26.54;32.39
57616;BME280;43816;52.054;-9.494;2023-05-02T00:23:50;101753.91;;;26.50;32.60
57616;BME280;43816;52.054;-9.494;2023-05-02T00:24:00;101763.66;;;26.52;32.43
57616;BME280;43816;52.054;-9.494;2023-05-02T00:24:11;101755.78;;;26.49;32.60
57616;BME280;43816;52.054;-9.494;2023-05-02T00:24:21;101758.53;;;26.49;32.44
57616;BME280;43816;52.054;-9.494;2023-05-02T00:24:31;101761.75;;;26.53;32.62
57616;BME280;43816;52.054;-9.494;2023-05-02T00:24:41;101765.38;;;26.53;32.13
57616;BME280;43816;52.054;-9.494;2023-05-02T00:24:58;101750.66;;;26.46;32.44
57616;BME280;43816;52.054;-9.494;2023-05-02T00:25:08;101757.91;;;26.47;32.45
57616;BME280;43816;52.054;-9.494;2023-05-02T00:25:18;101763.03;;;26.50;32.64
57616;BME280;43816;52.054;-9.494;2023-05-02T00:25:29;101753.84;;;26.43;32.25
57616;BME280;43816;52.054;-9.494;2023-05-02T00:25:45;101762.19;;;26.50;32.55
57616;BME280;43816;52.054;-9.494;2023-05-02T00:25:55;101763.84;;;26.51;32.55
57616;BME280;43816;52.054;-9.494;2023-05-02T00:26:09;101742.31;;;26.39;32.43
57616;BME280;43816;52.054;-9.494;2023-05-02T00:26:19;101753.66;;;26.45;32.66
57616;BME280;43816;52.054;-9.494;2023-05-02T00:26:29;101756.19;;;26.46;32.21
57616;BME280;43816;52.054;-9.494;2023-05-02T00:26:39;101757.06;;;26.47;32.39
57616;BME280;43816;52.054;-9.494;2023-05-02T00:26:50;101765.13;;;26.48;32.37
57616;BME280;43816;52.054;-9.494;2023-05-02T00:27:00;101758.09;;;26.46;32.42
57616;BME280;43816;52.054;-9.494;2023-05-02T00:27:10;101766.38;;;26.46;32.50
57616;BME280;43816;52.054;-9.494;2023-05-02T00:27:21;101762.56;;;26.47;32.60
57616;BME280;43816;52.054;-9.494;2023-05-02T00:27:31;101746.59;;;26.42;32.19
57616;BME280;43816;52.054;-9.494;2023-05-02T00:27:42;101765.97;;;26.49;32.48
57616;BME280;43816;52.054;-9.494;2023-05-02T00:27:53;101756.41;;;26.45;32.25
57616;BME280;43816;52.054;-9.494;2023-05-02T00:28:04;101758.28;;;26.44;32.36
57616;BME280;43816;52.054;-9.494;2023-05-02T00:28:14;101751.09;;;26.43;32.50
57616;BME280;43816;52.054;-9.494;2023-05-02T00:28:24;101744.63;;;26.36;32.41
57616;BME280;43816;52.054;-9.494;2023-05-02T00:28:34;101741.22;;;26.34;32.08
57616;BME280;43816;52.054;-9.494;2023-05-02T00:28:45;101761.25;;;26.43;32.07
57616;BME280;43816;52.054;-9.494;2023-05-02T00:28:56;101763.81;;;26.44;32.33
57616;BME280;43816;52.054;-9.494;2023-05-02T00:29:07;101762.97;;;26.44;32.28
57616;BME280;43816;52.054;-9.494;2023-05-02T00:29:17;101766.38;;;26.46;32.37
57616;BME280;43816;52.054;-9.494;2023-05-02T00:29:27;101764.44;;;26.46;32.15
57616;BME280;43816;52.054;-9.494;2023-05-02T00:29:38;101761.03;;;26.44;32.21
57616;BME280;43816;52.054;-9.494;2023-05-02T00:29:52;101771.03;;;26.45;32.47
57616;BME280;43816;52.054;-9.494;2023-05-02T00:30:02;101752.31;;;26.40;32.38
57616;BME280;43816;52.054;-9.494;2023-05-02T00:30:13;101771.03;;;26.45;32.42
57616;BME280;43816;52.054;-9.494;2023-05-02T00:30:23;101763.81;;;26.44;32.32
57616;BME280;43816;52.054;-9.494;2023-05-02T00:30:33;101750.16;;;26.36;32.13
57616;BME280;43816;52.054;-9.494;2023-05-02T00:30:44;101754.63;;;26.37;32.24
57616;BME280;43816;52.054;-9.494;2023-05-02T00:30:55;101755.91;;;26.41;32.47
57616;BME280;43816;52.054;-9.494;2023-05-02T00:31:05;101751.88;;;26.37;32.50
57616;BME280;43816;52.054;-9.494;2023-05-02T00:31:16;101749.69;;;26.32;32.24
57616;BME280;43816;52.054;-9.494;2023-05-02T00:31:26;101754.44;;;26.38;32.54
57616;BME280;43816;52.054;-9.494;2023-05-02T00:31:39;101754.63;;;26.37;32.35
57616;BME280;43816;52.054;-9.494;2023-05-02T00:31:50;101770.19;;;26.45;32.17
57616;BME280;43816;52.054;-9.494;2023-05-02T00:32:00;101755.28;;;26.39;32.41
57616;BME280;43816;52.054;-9.494;2023-05-02T00:32:10;101750.53;;;26.33;32.31
57616;BME280;43816;52.054;-9.494;2023-05-02T00:32:21;101765.06;;;26.42;32.31
57616;BME280;43816;52.054;-9.494;2023-05-02T00:32:31;101760.41;;;26.42;32.22
57616;BME280;43816;52.054;-9.494;2023-05-02T00:32:41;101754.44;;;26.38;32.23
57616;BME280;43816;52.054;-9.494;2023-05-02T00:32:51;101765.28;;;26.40;32.46
57616;BME280;43816;52.054;-9.494;2023-05-02T00:33:02;101763.34;;;26.40;32.31
57616;BME280;43816;52.054;-9.494;2023-05-02T00:33:13;101765.06;;;26.42;32.33
57616;BME280;43816;52.054;-9.494;2023-05-02T00:33:23;101761.19;;;26.36;32.20
57616;BME280;43816;52.054;-9.494;2023-05-02T00:33:33;101768.03;;;26.40;32.35
57616;BME280;43816;52.054;-9.494;2023-05-02T00:33:44;101768.88;;;26.40;32.63
57616;BME280;43816;52.054;-9.494;2023-05-02T00:33:54;101772.28;;;26.43;32.25
57616;BME280;43816;52.054;-9.494;2023-05-02T00:34:05;101758.22;;;26.37;32.34
57616;BME280;43816;52.054;-9.494;2023-05-02T00:34:15;101752.25;;;26.34;32.48
57616;BME280;43816;52.054;-9.494;2023-05-02T00:34:29;101753.72;;;26.30;32.17
57616;BME280;43816;52.054;-9.494;2023-05-02T00:34:39;101762.06;;;26.36;32.35
57616;BME280;43816;52.054;-9.494;2023-05-02T00:34:50;101766.50;;;26.37;32.55
57616;BME280;43816;52.054;-9.494;2023-05-02T00:35:00;101766.31;;;26.39;32.42
57616;BME280;43816;52.054;-9.494;2023-05-02T00:35:11;101768.03;;;26.40;32.20
57616;BME280;43816;52.054;-9.494;2023-05-02T00:35:21;101756.94;;;26.33;32.22
57616;BME280;43816;52.054;-9.494;2023-05-02T00:35:32;101766.50;;;26.37;32.46
57616;BME280;43816;52.054;-9.494;2023-05-02T00:35:42;101766.50;;;26.37;32.24
57616;BME280;43816;52.054;-9.494;2023-05-02T00:35:52;101752.66;;;26.31;32.23
57616;BME280;43816;52.054;-9.494;2023-05-02T00:36:03;101765.47;;;26.38;32.40
57616;BME280;43816;52.054;-9.494;2023-05-02T00:36:18;101770.13;;;26.38;32.24
57616;BME280;43816;52.054;-9.494;2023-05-02T00:36:28;101770.13;;;26.38;32.64
57616;BME280;43816;52.054;-9.494;2023-05-02T00:36:39;101769.25;;;26.37;32.40
57616;BME280;43816;52.054;-9.494;2023-05-02T00:36:49;101750.09;;;26.29;32.28
57616;BME280;43816;52.054;-9.494;2023-05-02T00:36:59;101763.28;;;26.34;32.58
57616;BME280;43816;52.054;-9.494;2023-05-02T00:37:09;101758.56;;;26.28;32.45
57616;BME280;43816;52.054;-9.494;2023-05-02T00:37:20;101759.88;;;26.32;32.45
57616;BME280;43816;52.054;-9.494;2023-05-02T00:37:30;101750.97;;;26.30;32.40
57616;BME280;43816;52.054;-9.494;2023-05-02T00:37:40;101766.69;;;26.36;32.43
57616;BME280;43816;52.054;-9.494;2023-05-02T00:37:51;101768.16;;;26.32;32.31
57616;BME280;43816;52.054;-9.494;2023-05-02T00:38:01;101758.16;;;26.31;32.43
57616;BME280;43816;52.054;-9.494;2023-05-02T00:38:11;101768.63;;;26.35;32.41
57616;BME280;43816;52.054;-9.494;2023-05-02T00:38:21;101758.81;;;26.33;32.77
57616;BME280;43816;52.054;-9.494;2023-05-02T00:38:32;101756.47;;;26.30;32.38
57616;BME280;43816;52.054;-9.494;2023-05-02T00:38:42;101768.41;;;26.37;32.21
57616;BME280;43816;52.054;-9.494;2023-05-02T00:38:53;101772.63;;;26.33;32.27
57616;BME280;43816;52.054;-9.494;2023-05-02T00:39:03;101762.00;;;26.30;32.65
57616;BME280;43816;52.054;-9.494;2023-05-02T00:39:13;101762.66;;;26.32;32.34
57616;BME280;43816;52.054;-9.494;2023-05-02T00:39:23;101763.50;;;26.32;32.58
57616;BME280;43816;52.054;-9.494;2023-05-02T00:39:34;101765.41;;;26.32;32.36
57616;BME280;43816;52.054;-9.494;2023-05-02T00:39:44;101773.09;;;26.36;32.48
57616;BME280;43816;52.054;-9.494;2023-05-02T00:39:55;101760.53;;;26.34;32.58
57616;BME280;43816;52.054;-9.494;2023-05-02T00:40:06;101771.78;;;26.32;32.35
57616;BME280;43816;52.054;-9.494;2023-05-02T00:40:16;101759.88;;;26.32;32.31
57616;BME280;43816;52.054;-9.494;2023-05-02T00:40:27;101756.88;;;26.27;32.07
57616;BME280;43816;52.054;-9.494;2023-05-02T00:40:48;101771.56;;;26.34;32.28
57616;BME280;43816;52.054;-9.494;2023-05-02T00:40:59;101762.00;;;26.30;32.10
57616;BME280;43816;52.054;-9.494;2023-05-02T00:41:09;101754.50;;;26.24;32.37
57616;BME280;43816;52.054;-9.494;2023-05-02T00:41:19;101752.00;;;26.29;32.29
57616;BME280;43816;52.054;-9.494;2023-05-02T00:41:30;101764.56;;;26.31;32.13
57616;BME280;43816;52.054;-9.494;2023-05-02T00:41:40;101762.84;;;26.30;32.05
57616;BME280;43816;52.054;-9.494;2023-05-02T00:41:57;101752.19;;;26.27;32.25
57616;BME280;43816;52.054;-9.494;2023-05-02T00:42:07;101749.63;;;26.26;32.56
57616;BME280;43816;52.054;-9.494;2023-05-02T00:42:18;101759.88;;;26.32;32.21
57616;BME280;43816;52.054;-9.494;2023-05-02T00:42:28;101754.13;;;26.27;32.21
57616;BME280;43816;52.054;-9.494;2023-05-02T00:42:38;101749.63;;;26.26;32.64
57616;BME280;43816;52.054;-9.494;2023-05-02T00:42:48;101759.03;;;26.31;32.27
57616;BME280;43816;52.054;-9.494;2023-05-02T00:42:59;101756.00;;;26.26;32.41
57616;BME280;43816;52.054;-9.494;2023-05-02T00:43:09;101757.31;;;26.30;32.49
57616;BME280;43816;52.054;-9.494;2023-05-02T00:43:19;101756.47;;;26.30;32.07
57616;BME280;43816;52.054;-9.494;2023-05-02T00:43:30;101764.06;;;26.28;32.45
57616;BME280;43816;52.054;-9.494;2023-05-02T00:43:40;101754.75;;;26.29;32.45
57616;BME280;43816;52.054;-9.494;2023-05-02T00:43:50;101756.88;;;26.27;32.61
57616;BME280;43816;52.054;-9.494;2023-05-02T00:44:00;101751.56;;;26.25;32.27
57616;BME280;43816;52.054;-9.494;2023-05-02T00:44:11;101745.38;;;26.23;32.23
57616;BME280;43816;52.054;-9.494;2023-05-02T00:44:21;101758.56;;;26.28;32.19
57616;BME280;43816;52.054;-9.494;2023-05-02T00:44:31;101747.91;;;26.25;32.47
57616;BME280;43816;52.054;-9.494;2023-05-02T00:44:42;101750.03;;;26.22;32.23
57616;BME280;43816;52.054;-9.494;2023-05-02T00:44:52;101746.22;;;26.24;32.21
57616;BME280;43816;52.054;-9.494;2023-05-02T00:45:03;101755.16;;;26.26;32.49
57616;BME280;43816;52.054;-9.494;2023-05-02T00:45:13;101750.69;;;26.25;32.58
57616;BME280;43816;52.054;-9.494;2023-05-02T00:45:24;101755.16;;;26.26;32.37
57616;BME280;43816;52.054;-9.494;2023-05-02T00:45:35;101751.75;;;26.24;32.41
57616;BME280;43816;52.054;-9.494;2023-05-02T00:45:45;101760.66;;;26.26;32.14
57616;BME280;43816;52.054;-9.494;2023-05-02T00:45:55;101760.66;;;26.26;32.39
57616;BME280;43816;52.054;-9.494;2023-05-02T00:46:06;101759.81;;;26.25;32.02
57616;BME280;43816;52.054;-9.494;2023-05-02T00:46:16;101751.56;;;26.25;32.11
57616;BME280;43816;52.054;-9.494;2023-05-02T00:46:27;101749.19;;;26.22;32.28
57616;BME280;43816;52.054;-9.494;2023-05-02T00:46:37;101754.50;;;26.24;32.41
57616;BME280;43816;52.054;-9.494;2023-05-02T00:46:47;101729.09;;;26.07;32.27
57616;BME280;43816;52.054;-9.494;2023-05-02T00:47:00;101752.78;;;26.22;32.33
57616;BME280;43816;52.054;-9.494;2023-05-02T00:47:10;101745.97;;;26.18;32.37
57616;BME280;43816;52.054;-9.494;2023-05-02T00:47:20;101756.41;;;26.23;32.04
57616;BME280;43816;52.054;-9.494;2023-05-02T00:47:31;101750.91;;;26.23;32.16
57616;BME280;43816;52.054;-9.494;2023-05-02T00:47:41;101758.69;;;26.19;32.13
57616;BME280;43816;52.054;-9.494;2023-05-02T00:47:52;101753.44;;;26.25;32.35
57616;BME280;43816;52.054;-9.494;2023-05-02T00:48:02;101758.09;;;26.24;32.21
57616;BME280;43816;52.054;-9.494;2023-05-02T00:48:13;101758.94;;;26.25;32.00
57616;BME280;43816;52.054;-9.494;2023-05-02T00:48:24;101750.22;;;26.21;32.16
57616;BME280;43816;52.054;-9.494;2023-05-02T00:48:34;101746.63;;;26.20;32.30
57616;BME280;43816;52.054;-9.494;2023-05-02T00:48:45;101745.09;;;26.18;32.43
57616;BME280;43816;52.054;-9.494;2023-05-02T00:48:55;101744.44;;;26.16;32.11
57616;BME280;43816;52.054;-9.494;2023-05-02T00:49:06;101748.72;;;26.18;32.36
57616;BME280;43816;52.054;-9.494;2023-05-02T00:49:16;101745.97;;;26.18;32.04
57616;BME280;43816;52.054;-9.494;2023-05-02T00:49:26;101748.34;;;26.21;32.18
57616;BME280;43816;52.054;-9.494;2023-05-02T00:49:37;101751.28;;;26.20;31.98
57616;BME280;43816;52.054;-9.494;2023-05-02T00:49:48;101748.53;;;26.20;32.15
57616;BME280;43816;52.054;-9.494;2023-05-02T00:49:59;101753.19;;;26.19;32.25
57616;BME280;43816;52.054;-9.494;2023-05-02T00:50:09;101754.06;;;26.20;32.21
57616;BME280;43816;52.054;-9.494;2023-05-02T00:50:20;101748.72;;;26.18;32.25
57616;BME280;43816;52.054;-9.494;2023-05-02T00:50:31;101736.75;;;26.11;32.43
57616;BME280;43816;52.054;-9.494;2023-05-02T00:50:43;101749.97;;;26.16;32.41
57616;BME280;43816;52.054;-9.494;2023-05-02T00:50:53;101746.16;;;26.17;32.12
57616;BME280;43816;52.054;-9.494;2023-05-02T00:51:04;101735.06;;;26.10;32.18
57616;BME280;43816;52.054;-9.494;2023-05-02T00:51:15;101754.25;;;26.18;32.11
57616;BME280;43816;52.054;-9.494;2023-05-02T00:51:25;101745.97;;;26.18;32.13
57616;BME280;43816;52.054;-9.494;2023-05-02T00:51:36;101744.44;;;26.16;32.17
57616;BME280;43816;52.054;-9.494;2023-05-02T00:51:46;101731.66;;;26.08;32.53
57616;BME280;43816;52.054;-9.494;2023-05-02T00:51:57;101745.31;;;26.16;32.22
57616;BME280;43816;52.054;-9.494;2023-05-02T00:52:08;101755.28;;;26.17;32.14
57616;BME280;43816;52.054;-9.494;2023-05-02T00:52:18;101748.28;;;26.15;32.35
57616;BME280;43816;52.054;-9.494;2023-05-02T00:52:28;101745.72;;;26.13;32.35
57616;BME280;43816;52.054;-9.494;2023-05-02T00:52:39;101756.34;;;26.16;32.19
57616;BME280;43816;52.054;-9.494;2023-05-02T00:52:49;101754.84;;;26.14;32.12
57616;BME280;43816;52.054;-9.494;2023-05-02T00:53:00;101751.22;;;26.13;32.06
57616;BME280;43816;52.054;-9.494;2023-05-02T00:53:10;101745.72;;;26.13;32.36
57616;BME280;43816;52.054;-9.494;2023-05-02T00:53:21;101748.47;;;26.13;32.10
57616;BME280;43816;52.054;-9.494;2023-05-02T00:53:31;101754.63;;;26.15;31.90
57616;BME280;43816;52.054;-9.494;2023-05-02T00:53:41;101755.88;;;26.13;31.96
57616;BME280;43816;52.054;-9.494;2023-05-02T00:53:52;101755.88;;;26.13;32.07
57616;BME280;43816;52.054;-9.494;2023-05-02T00:54:03;101753.59;;;26.16;32.05
57616;BME280;43816;52.054;-9.494;2023-05-02T00:54:14;101751.22;;;26.13;32.03
57616;BME280;43816;52.054;-9.494;2023-05-02T00:54:24;101749.91;;;26.09;32.24
57616;BME280;43816;52.054;-9.494;2023-05-02T00:54:37;101759.13;;;26.16;31.85
57616;BME280;43816;52.054;-9.494;2023-05-02T00:54:47;101739.06;;;26.08;32.30